createdAt,value
2019-04-26T00:01:40.656Z,43.20
2019-04-26T00:04:12.179Z,43.50
2019-04-26T00:06:43.474Z,43.70
2019-04-26T00:09:30.840Z,43.70
2019-04-26T00:12:18.565Z,43.90
2019-04-26T00:15:20.756Z,44.00
2019-04-26T00:17:55.378Z,44.10
2019-04-26T00:20:26.238Z,44.40
2019-04-26T00:22:57.233Z,44.60
2019-04-26T00:25:28.373Z,44.50
2019-04-26T00:27:59.245Z,44.80
2019-04-26T00:30:30.230Z,44.80
2019-04-26T00:33:01.246Z,45.00
2019-04-26T00:35:32.590Z,45.00
2019-04-26T00:38:03.607Z,45.10
2019-04-26T00:40:34.796Z,45.20
2019-04-26T00:43:05.753Z,45.30
2019-04-26T00:45:38.260Z,45.40
2019-04-26T00:48:12.540Z,45.60
2019-04-26T00:50:45.561Z,45.60
2019-04-26T00:53:17.777Z,45.70
2019-04-26T00:55:49.477Z,45.90
2019-04-26T00:58:22.290Z,46.10
2019-04-26T01:00:53.928Z,46.10
2019-04-26T01:03:25.011Z,46.20
2019-04-26T01:06:00.263Z,46.20
2019-04-26T01:08:29.809Z,46.30
2019-04-26T01:11:00.655Z,46.40
2019-04-26T01:13:31.633Z,46.60
2019-04-26T01:16:02.848Z,46.70
2019-04-26T01:18:34.648Z,46.80
2019-04-26T01:21:08.546Z,46.90
2019-04-26T01:23:41.548Z,47.00
2019-04-26T01:26:25.227Z,47.10
2019-04-26T01:29:01.167Z,47.20
2019-04-26T01:31:35.247Z,47.40
2019-04-26T01:34:06.253Z,47.40
2019-04-26T01:36:38.980Z,47.50
2019-04-26T01:39:16.912Z,48.30
2019-04-26T01:42:17.026Z,47.70
2019-04-26T01:44:57.732Z,47.70
2019-04-26T01:47:28.871Z,47.80
2019-04-26T01:50:00.000Z,48.00
2019-04-26T01:52:31.926Z,48.10
2019-04-26T01:55:02.857Z,48.20
2019-04-26T01:57:34.401Z,48.30
2019-04-26T02:00:32.566Z,48.40
2019-04-26T02:03:10.376Z,48.50
2019-04-26T02:05:41.567Z,48.60
2019-04-26T02:08:12.463Z,48.70
2019-04-26T02:10:43.257Z,48.90
2019-04-26T02:13:14.124Z,48.90
2019-04-26T02:15:45.018Z,49.10
2019-04-26T02:18:15.988Z,49.30
2019-04-26T02:21:38.400Z,49.30
2019-04-26T02:24:23.906Z,49.50
2019-04-26T02:26:56.828Z,49.40
2019-04-26T02:29:28.615Z,49.40
2019-04-26T02:32:03.887Z,49.60
2019-04-26T02:34:37.846Z,49.70
2019-04-26T02:37:10.510Z,50.00
2019-04-26T02:39:42.281Z,50.00
2019-04-26T02:42:26.629Z,50.10
2019-04-26T02:45:29.981Z,50.10
2019-04-26T02:48:40.214Z,50.20
2019-04-26T02:51:16.781Z,50.30
2019-04-26T02:53:56.258Z,50.30
2019-04-26T02:56:43.723Z,50.30
2019-04-26T02:59:34.520Z,50.70
2019-04-26T03:02:15.638Z,50.60
2019-04-26T03:04:49.818Z,50.70
2019-04-26T03:07:43.252Z,50.90
2019-04-26T03:10:14.265Z,51.00
2019-04-26T03:12:47.231Z,51.00
2019-04-26T03:15:34.199Z,51.20
2019-04-26T03:18:26.351Z,51.30
2019-04-26T03:21:02.624Z,51.30
2019-04-26T03:23:58.160Z,51.40
2019-04-26T03:26:44.660Z,51.60
2019-04-26T03:29:37.047Z,51.50
2019-04-26T03:32:39.083Z,51.60
2019-04-26T03:35:48.554Z,51.80
2019-04-26T03:38:46.904Z,51.80
2019-04-26T03:41:27.144Z,51.90
2019-04-26T03:44:07.402Z,52.00
2019-04-26T03:46:53.206Z,52.10
2019-04-26T03:50:20.199Z,52.10
2019-04-26T03:53:35.797Z,52.20
2019-04-26T03:57:01.430Z,52.20
2019-04-26T04:00:00.782Z,52.30
2019-04-26T04:02:53.732Z,52.30
2019-04-26T04:05:37.898Z,52.30
2019-04-26T04:08:13.524Z,52.50
2019-04-26T04:10:53.696Z,52.60
2019-04-26T04:13:50.819Z,53.40
2019-04-26T04:16:29.579Z,52.90
2019-04-26T04:19:13.730Z,52.90
2019-04-26T04:21:56.537Z,53.00
2019-04-26T04:24:48.704Z,53.10
2019-04-26T04:27:42.017Z,53.20
2019-04-26T04:30:49.383Z,53.20
2019-04-26T04:33:56.321Z,53.40
2019-04-26T04:36:37.144Z,53.60
2019-04-26T04:39:12.869Z,53.60
2019-04-26T04:42:03.042Z,53.60
2019-04-26T04:45:33.640Z,53.70
2019-04-26T04:48:41.183Z,53.70
2019-04-26T04:51:33.155Z,53.60
2019-04-26T04:54:15.113Z,53.90
2019-04-26T04:56:57.713Z,53.90
2019-04-26T04:59:48.146Z,53.80
2019-04-26T05:02:32.737Z,53.80
2019-04-26T05:05:44.939Z,53.70
2019-04-26T05:08:40.609Z,53.00
2019-04-26T05:11:19.823Z,51.90
2019-04-26T05:14:07.671Z,49.60
2019-04-26T05:17:22.282Z,48.20
2019-04-26T05:20:29.411Z,48.00
2019-04-26T05:23:26.407Z,47.70
2019-04-26T05:26:47.774Z,48.20
2019-04-26T05:29:43.213Z,48.60
2019-04-26T05:32:50.798Z,48.80
2019-04-26T05:35:53.253Z,48.50
2019-04-26T05:38:55.352Z,47.70
2019-04-26T05:42:08.388Z,46.90
2019-04-26T05:45:43.596Z,45.50
2019-04-26T05:48:45.485Z,44.60
2019-04-26T05:52:11.197Z,43.90
2019-04-26T05:55:15.321Z,44.70
2019-04-26T05:58:02.799Z,44.40
2019-04-26T06:01:03.671Z,41.90
2019-04-26T06:04:48.626Z,41.20
2019-04-26T06:08:01.299Z,40.90
2019-04-26T06:10:46.417Z,40.40
2019-04-26T06:14:02.910Z,40.80
2019-04-26T06:17:38.678Z,40.10
2019-04-26T06:20:41.383Z,39.60
2019-04-26T06:23:28.703Z,39.10
2019-04-26T06:26:31.732Z,38.70
2019-04-26T06:29:07.826Z,38.50
2019-04-26T06:31:51.671Z,37.30
2019-04-26T06:34:36.474Z,37.40
2019-04-26T06:37:37.397Z,38.40
2019-04-26T06:40:17.796Z,38.40
2019-04-26T06:43:34.433Z,36.40
2019-04-26T06:46:47.425Z,35.70
2019-04-26T06:49:44.974Z,35.80
2019-04-26T06:52:19.780Z,36.80
2019-04-26T06:55:20.153Z,37.60
2019-04-26T06:58:30.585Z,37.70
2019-04-26T07:01:33.374Z,38.50
2019-04-26T07:04:45.487Z,39.50
2019-04-26T07:07:47.022Z,40.10
2019-04-26T07:10:56.218Z,40.90
2019-04-26T07:14:09.391Z,41.20
2019-04-26T07:16:56.659Z,41.40
2019-04-26T07:19:54.790Z,41.60
2019-04-26T07:22:49.252Z,41.90
2019-04-26T07:25:55.631Z,41.90
2019-04-26T07:28:47.351Z,42.00
2019-04-26T07:31:30.035Z,42.20
2019-04-26T07:34:39.925Z,42.30
2019-04-26T07:37:50.471Z,42.40
2019-04-26T07:41:07.167Z,42.90
2019-04-26T07:44:19.850Z,43.50
2019-04-26T07:47:30.219Z,43.50
2019-04-26T07:50:31.433Z,43.70
2019-04-26T07:53:49.291Z,43.90
2019-04-26T07:56:56.917Z,44.00
2019-04-26T08:00:09.216Z,44.20
2019-04-26T08:03:05.510Z,44.80
2019-04-26T08:05:46.443Z,44.80
2019-04-26T08:08:21.200Z,45.10
2019-04-26T08:11:10.749Z,45.20
2019-04-26T08:13:53.289Z,45.40
2019-04-26T08:16:46.304Z,45.40
2019-04-26T08:19:20.565Z,45.50
2019-04-26T08:21:53.999Z,45.60
2019-04-26T08:24:28.655Z,45.80
2019-04-26T08:27:13.553Z,45.80
2019-04-26T08:29:41.108Z,46.20
2019-04-26T08:32:23.614Z,46.10
2019-04-26T08:35:08.195Z,46.10
2019-04-26T08:37:52.372Z,46.20
2019-04-26T08:40:31.050Z,46.20
2019-04-26T08:43:18.246Z,46.50
2019-04-26T08:46:13.995Z,46.50
2019-04-26T08:49:11.125Z,46.70
2019-04-26T08:51:44.236Z,46.50
2019-04-26T08:54:24.194Z,46.50
2019-04-26T08:57:08.232Z,46.30
2019-04-26T08:59:44.315Z,46.30
2019-04-26T09:02:43.153Z,46.40
2019-04-26T09:05:37.666Z,46.40
2019-04-26T09:08:11.176Z,46.60
2019-04-26T09:10:45.105Z,46.80
2019-04-26T09:13:18.325Z,46.90
2019-04-26T09:16:12.318Z,47.10
2019-04-26T09:18:48.120Z,47.20
2019-04-26T09:21:19.313Z,47.30
2019-04-26T09:24:08.364Z,47.40
2019-04-26T09:26:58.292Z,47.70
2019-04-26T09:29:44.390Z,48.00
2019-04-26T09:32:24.231Z,48.10
2019-04-26T09:34:55.551Z,48.30
2019-04-26T09:37:27.009Z,48.70
2019-04-26T09:40:09.632Z,48.70
2019-04-26T09:42:48.735Z,48.70
2019-04-26T09:45:34.682Z,49.00
2019-04-26T09:48:13.595Z,48.90
2019-04-26T09:50:46.820Z,49.00
2019-04-26T09:53:18.600Z,49.20
2019-04-26T09:55:49.556Z,49.10
2019-04-26T09:58:20.393Z,49.20
2019-04-26T10:00:51.277Z,49.10
2019-04-26T10:03:22.236Z,49.20
2019-04-26T10:05:55.826Z,49.30
2019-04-26T10:08:25.644Z,49.20
2019-04-26T10:10:56.524Z,49.50
2019-04-26T10:13:41.150Z,49.50
2019-04-26T10:16:37.786Z,49.60
2019-04-26T10:19:11.147Z,49.60
2019-04-26T10:21:42.227Z,49.60
2019-04-26T10:24:13.294Z,49.70
2019-04-26T10:26:44.203Z,49.80
2019-04-26T10:29:15.179Z,49.80
2019-04-26T10:31:47.628Z,49.90
2019-04-26T10:34:18.677Z,49.80
2019-04-26T10:36:49.684Z,50.00
2019-04-26T10:39:20.937Z,50.00
2019-04-26T10:41:51.844Z,50.30
2019-04-26T10:44:23.262Z,50.20
2019-04-26T10:46:55.589Z,50.30
2019-04-26T10:49:59.287Z,50.40
2019-04-26T10:52:55.559Z,50.30
2019-04-26T10:55:51.520Z,50.10
2019-04-26T10:58:41.521Z,50.20
2019-04-26T11:01:15.185Z,50.20
2019-04-26T11:03:46.161Z,50.30
2019-04-26T11:06:17.257Z,50.40
2019-04-26T11:08:48.118Z,50.50
2019-04-26T11:11:19.067Z,50.10
2019-04-26T11:13:49.938Z,49.80
2019-04-26T11:16:20.975Z,49.70
2019-04-26T11:18:52.897Z,49.80
2019-04-26T11:21:23.822Z,49.60
2019-04-26T11:23:54.658Z,49.50
2019-04-26T11:26:25.523Z,49.50
2019-04-26T11:28:57.183Z,49.20
2019-04-26T11:31:29.268Z,49.10
2019-04-26T11:34:05.308Z,49.10
2019-04-26T11:36:37.481Z,48.90
2019-04-26T11:39:09.408Z,49.00
2019-04-26T11:41:41.289Z,49.10
2019-04-26T11:44:12.377Z,49.10
2019-04-26T11:46:45.078Z,49.20
2019-04-26T11:49:16.380Z,49.20
2019-04-26T11:51:47.231Z,49.40
2019-04-26T11:54:20.693Z,49.60
2019-04-26T11:56:50.807Z,49.70
2019-04-26T11:59:21.672Z,49.80
2019-04-26T12:01:53.067Z,49.80
2019-04-26T12:04:49.640Z,49.80
2019-04-26T12:07:28.607Z,50.00
2019-04-26T12:10:01.339Z,50.10
2019-04-26T12:12:33.873Z,50.30
2019-04-26T12:15:08.612Z,50.20
2019-04-26T12:17:39.064Z,50.30
2019-04-26T12:20:10.159Z,50.10
2019-04-26T12:22:43.385Z,50.20
2019-04-26T12:25:13.800Z,50.30
2019-04-26T12:27:45.231Z,50.30
2019-04-26T12:30:16.198Z,50.30
2019-04-26T12:32:49.925Z,50.30
2019-04-26T12:35:19.701Z,50.20
2019-04-26T12:37:54.298Z,50.30
2019-04-26T12:40:24.173Z,50.40
2019-04-26T12:42:55.041Z,50.30
2019-04-26T12:45:54.458Z,50.50
2019-04-26T12:48:25.436Z,50.60
2019-04-26T12:50:56.355Z,50.80
2019-04-26T12:53:31.175Z,50.90
2019-04-26T12:55:59.889Z,51.00
2019-04-26T12:58:30.818Z,51.00
2019-04-26T13:01:01.863Z,51.30
2019-04-26T13:03:32.888Z,51.60
2019-04-26T13:06:03.809Z,51.60
2019-04-26T13:08:34.770Z,51.70
2019-04-26T13:11:48.407Z,51.90
2019-04-26T13:14:16.984Z,51.90
2019-04-26T13:17:15.644Z,52.10
2019-04-26T13:19:49.579Z,52.20
2019-04-26T13:22:19.153Z,52.50
2019-04-26T13:24:50.118Z,52.60
2019-04-26T13:27:21.174Z,52.80
2019-04-26T13:30:01.575Z,53.00
2019-04-26T13:32:24.639Z,53.20
2019-04-26T13:34:55.806Z,53.50
2019-04-26T13:37:26.704Z,53.70
2019-04-26T13:39:57.579Z,53.90
2019-04-26T13:42:28.490Z,53.90
2019-04-26T13:45:05.615Z,54.00
2019-04-26T13:47:55.511Z,54.10
2019-04-26T13:50:30.113Z,54.20
2019-04-26T13:53:01.172Z,54.30
2019-04-26T13:55:33.747Z,54.40
2019-04-26T13:58:04.830Z,54.70
2019-04-26T14:00:35.872Z,55.00
2019-04-26T14:03:06.803Z,55.40
2019-04-26T14:05:38.067Z,55.50
2019-04-26T14:08:09.237Z,55.70
2019-04-26T14:10:41.025Z,56.00
2019-04-26T14:13:12.037Z,56.00
2019-04-26T14:15:44.028Z,56.10
2019-04-26T14:18:15.392Z,56.20
2019-04-26T14:20:46.531Z,56.40
2019-04-26T14:23:26.440Z,56.40
2019-04-26T14:26:01.197Z,56.60
2019-04-26T14:28:33.135Z,56.70
2019-04-26T14:31:04.090Z,56.80
2019-04-26T14:33:34.959Z,57.10
2019-04-26T14:36:17.861Z,57.20
2019-04-26T14:38:47.381Z,57.30
2019-04-26T14:41:22.526Z,57.40
2019-04-26T14:43:56.828Z,57.50
2019-04-26T14:46:28.946Z,57.60
2019-04-26T14:49:02.727Z,57.90
2019-04-26T14:51:32.419Z,58.00
2019-04-26T14:54:11.407Z,58.80
2019-04-26T14:56:51.689Z,58.20
2019-04-26T14:59:13.487Z,58.40
2019-04-26T15:02:02.448Z,58.50
2019-04-26T15:04:47.657Z,58.50
2019-04-26T15:07:19.114Z,58.70
2019-04-26T15:09:50.172Z,58.70
2019-04-26T15:12:22.389Z,59.00
2019-04-26T15:14:56.673Z,59.10
2019-04-26T15:17:26.612Z,59.10
2019-04-26T15:19:57.713Z,59.10
2019-04-26T15:22:29.020Z,59.30
2019-04-26T15:24:59.965Z,59.20
2019-04-26T15:27:32.190Z,59.30
2019-04-26T15:30:04.355Z,59.40
2019-04-26T15:32:35.521Z,59.40
2019-04-26T15:35:08.035Z,59.40
2019-04-26T15:37:38.971Z,59.40
2019-04-26T15:40:34.968Z,59.30
2019-04-26T15:43:20.172Z,59.20
2019-04-26T15:46:12.500Z,59.40
2019-04-26T15:49:05.112Z,59.50
2019-04-26T15:51:36.190Z,59.60
2019-04-26T15:54:07.634Z,59.60
2019-04-26T15:56:40.275Z,59.70
2019-04-26T15:59:12.754Z,59.70
2019-04-26T16:01:47.662Z,59.60
2019-04-26T16:04:18.423Z,59.80
2019-04-26T16:06:49.750Z,59.70
2019-04-26T16:09:21.304Z,59.50
2019-04-26T16:11:55.259Z,59.30
2019-04-26T16:14:31.143Z,59.10
2019-04-26T16:17:03.166Z,59.00
2019-04-26T16:19:32.236Z,58.90
2019-04-26T16:22:03.351Z,59.00
2019-04-26T16:24:34.582Z,59.00
2019-04-26T16:27:06.162Z,58.80
2019-04-26T16:29:58.349Z,58.90
2019-04-26T16:32:58.663Z,59.10
2019-04-26T16:35:28.402Z,59.20
2019-04-26T16:38:06.661Z,59.30
2019-04-26T16:40:34.547Z,59.20
2019-04-26T16:43:05.482Z,59.10
2019-04-26T16:45:37.288Z,59.10
2019-04-26T16:48:08.193Z,59.10
2019-04-26T16:50:44.297Z,59.30
2019-04-26T16:58:18.304Z,59.60
2019-04-26T17:00:32.162Z,59.40
2019-04-26T17:00:54.727Z,59.70
2019-04-26T17:03:23.574Z,59.80
2019-04-26T17:06:04.793Z,59.80
2019-04-26T17:08:27.001Z,59.90
2019-04-26T17:09:51.005Z,59.50
2019-04-26T17:11:00.725Z,60.10
2019-04-26T17:13:32.787Z,60.20
2019-04-26T17:16:02.999Z,60.20
2019-04-26T17:18:33.901Z,60.20
2019-04-26T17:21:04.983Z,60.40
2019-04-26T17:23:55.188Z,60.30
2019-04-26T17:26:38.423Z,60.40
2019-04-26T17:29:09.334Z,60.50
2019-04-26T17:31:40.333Z,60.50
2019-04-26T17:34:12.650Z,60.50
2019-04-26T17:36:46.394Z,60.60
2019-04-26T17:39:17.235Z,60.80
2019-04-26T17:41:50.864Z,60.70
2019-04-26T17:44:26.558Z,60.70
2019-04-26T17:46:57.074Z,60.80
2019-04-26T17:49:28.765Z,60.80
2019-04-26T17:52:00.369Z,61.00
2019-04-26T17:54:46.160Z,61.10
2019-04-26T17:57:08.890Z,61.40
2019-04-26T17:59:45.271Z,61.40
2019-04-26T18:02:20.551Z,61.40
2019-04-26T18:04:43.555Z,61.50
2019-04-26T18:07:37.523Z,61.50
2019-04-26T18:09:47.001Z,62.40
2019-04-26T18:12:17.812Z,61.60
2019-04-26T18:14:48.778Z,61.80
2019-04-26T18:17:47.692Z,62.10
2019-04-26T18:20:50.311Z,62.20
2019-04-26T18:23:21.474Z,62.20
2019-04-26T18:25:52.676Z,62.10
2019-04-26T18:28:23.724Z,62.40
2019-04-26T18:30:54.621Z,62.60
2019-04-26T18:33:26.076Z,62.80
2019-04-26T18:35:57.585Z,62.90
2019-04-26T18:38:28.554Z,63.20
2019-04-26T18:41:01.268Z,63.20
2019-04-26T18:43:32.764Z,63.40
2019-04-26T18:46:08.603Z,63.50
2019-04-26T18:48:41.919Z,63.60
2019-04-26T18:51:13.290Z,63.90
2019-04-26T18:54:14.497Z,64.00
2019-04-26T18:56:45.670Z,64.10
2019-04-26T18:59:16.632Z,64.10
2019-04-26T19:01:48.047Z,64.40
2019-04-26T19:04:18.973Z,64.60
2019-04-26T19:06:50.174Z,64.80
2019-04-26T19:09:24.702Z,64.90
2019-04-26T19:11:56.202Z,65.00
2019-04-26T19:15:04.217Z,65.10
2019-04-26T19:17:53.112Z,65.20
2019-04-26T19:20:35.195Z,65.10
2019-04-26T19:23:08.283Z,65.30
2019-04-26T19:25:41.213Z,65.40
2019-04-26T19:28:12.224Z,65.50
2019-04-26T19:30:49.185Z,65.50
2019-04-26T19:33:18.520Z,65.50
2019-04-26T19:35:49.705Z,65.60
2019-04-26T19:38:21.318Z,65.70
2019-04-26T19:40:53.302Z,65.80
2019-04-26T19:43:31.072Z,65.70
2019-04-26T19:46:17.046Z,65.80
2019-04-26T19:49:10.004Z,65.90
2019-04-26T19:52:03.447Z,66.00
2019-04-26T19:54:46.337Z,66.20
2019-04-26T19:57:23.399Z,66.20
2019-04-26T19:59:52.700Z,66.30
2019-04-26T20:02:26.844Z,66.40
2019-04-26T20:04:56.229Z,66.50
2019-04-26T20:07:28.204Z,66.60
2019-04-26T20:10:02.591Z,66.70
2019-04-26T20:12:37.819Z,66.80
2019-04-26T20:15:06.495Z,66.70
2019-04-26T20:17:37.486Z,66.80
2019-04-26T20:20:18.868Z,67.00
2019-04-26T20:22:42.143Z,66.80
2019-04-26T20:25:12.990Z,67.00
2019-04-26T20:27:43.945Z,67.20
2019-04-26T20:30:27.586Z,67.20
2019-04-26T20:32:57.378Z,67.20
2019-04-26T20:35:28.613Z,67.20
2019-04-26T20:38:03.289Z,67.30
2019-04-26T20:40:32.775Z,67.40
2019-04-26T20:43:06.953Z,67.50
2019-04-26T20:45:41.495Z,67.70
2019-04-26T20:48:08.664Z,67.70
2019-04-26T20:50:41.341Z,67.80
2019-04-26T20:53:12.216Z,67.80
2019-04-26T20:55:43.078Z,67.90
2019-04-26T20:58:13.996Z,67.90
2019-04-26T21:00:54.085Z,68.10
2019-04-26T21:03:24.520Z,68.10
2019-04-26T21:05:58.825Z,68.10
2019-04-26T21:08:25.994Z,69.00
2019-04-26T21:10:56.081Z,68.30
2019-04-26T21:13:30.912Z,68.50
2019-04-26T21:16:03.478Z,68.60
2019-04-26T21:18:39.971Z,68.60
2019-04-26T21:21:10.430Z,68.70
2019-04-26T21:23:41.508Z,68.70
2019-04-26T21:26:25.021Z,68.70
2019-04-26T21:29:03.317Z,68.80
2019-04-26T21:31:45.032Z,69.10
2019-04-26T21:34:25.203Z,69.00
2019-04-26T21:37:21.862Z,69.00
2019-04-26T21:40:05.411Z,69.10
2019-04-26T21:42:36.629Z,69.10
2019-04-26T21:45:08.018Z,69.10
2019-04-26T21:47:39.079Z,69.20
2019-04-26T21:50:10.122Z,69.30
2019-04-26T21:52:40.947Z,69.30
2019-04-26T21:55:11.837Z,69.50
2019-04-26T21:57:43.909Z,69.50
2019-04-26T22:00:30.265Z,69.70
2019-04-26T22:03:03.790Z,69.70
2019-04-26T22:05:35.299Z,69.70
2019-04-26T22:08:06.240Z,69.70
2019-04-26T22:10:44.536Z,69.70
2019-04-26T22:13:24.760Z,69.70
2019-04-26T22:16:33.812Z,69.90
2019-04-26T22:18:59.161Z,70.10
2019-04-26T22:21:38.979Z,70.20
2019-04-26T22:24:23.752Z,70.20
2019-04-26T22:26:54.687Z,70.20
2019-04-26T22:29:25.543Z,70.20
2019-04-26T22:31:56.399Z,70.30
2019-04-26T22:34:27.264Z,70.30
2019-04-26T22:37:01.913Z,70.30
2019-04-26T22:39:32.718Z,71.20
2019-04-26T22:42:03.878Z,70.50
2019-04-26T22:44:39.572Z,70.50
2019-04-26T22:47:17.961Z,70.60
2019-04-26T22:49:48.807Z,70.60
2019-04-26T22:52:19.779Z,70.70
2019-04-26T22:54:50.931Z,70.80
2019-04-26T22:57:23.221Z,70.80
2019-04-26T22:59:54.114Z,70.80
2019-04-26T23:02:27.718Z,70.70
2019-04-26T23:05:00.496Z,70.70
2019-04-26T23:07:33.069Z,70.70
2019-04-26T23:10:05.905Z,70.80
2019-04-26T23:12:57.958Z,71.40
2019-04-26T23:15:53.182Z,70.60
2019-04-26T23:18:38.755Z,70.60
2019-04-26T23:21:18.597Z,70.70
2019-04-26T23:23:49.710Z,70.80
2019-04-26T23:26:20.601Z,70.80
2019-04-26T23:28:53.411Z,70.90
2019-04-26T23:31:24.406Z,71.10
2019-04-26T23:33:55.285Z,71.20
2019-04-26T23:36:26.235Z,71.40
2019-04-26T23:38:57.450Z,71.60
2019-04-26T23:41:28.342Z,71.70
2019-04-26T23:44:03.084Z,71.80
2019-04-26T23:46:33.104Z,72.00
2019-04-26T23:49:03.995Z,72.20
2019-04-26T23:51:38.337Z,72.10
2019-04-26T23:54:07.689Z,72.20
2019-04-26T23:56:38.681Z,72.40
2019-04-26T23:59:09.625Z,72.50
